Time;durP1;ratioP1;P1;durP2;ratioP2;P2;SDS_P1;SDS_P2;PMS_P1;PMS_P2;Temp;Humidity;BMP_temperature;BMP_pressure;BME280_temperature;BME280_humidity;BME280_pressure;Samples;Min_cycle;Max_cycle;Signal;HPM_P1;HPM_P2
2022/11/10 00:02:03;;;;;;;59.08;46.92;;;14.60;99.40;;;;;;5124774;27;20110;-69
2022/11/10 00:04:28;;;;;;;63.20;48.95;;;14.60;99.40;;;;;;5123392;27;20036;-69
2022/11/10 00:06:54;;;;;;;69.93;49.92;;;14.60;99.40;;;;;;5113659;27;20046;-68
2022/11/10 00:09:20;;;;;;;60.70;48.15;;;14.60;99.40;;;;;;5135606;27;20047;-68
2022/11/10 00:11:45;;;;;;;60.58;49.05;;;14.60;99.40;;;;;;5129539;27;20057;-67
2022/11/10 00:17:03;;;;;;;63.35;49.85;;;14.60;99.60;;;;;;5119329;27;20031;-67
2022/11/10 00:19:29;;;;;;;66.60;49.28;;;14.60;99.50;;;;;;5119337;27;20019;-68
2022/11/10 00:21:55;;;;;;;58.38;47.58;;;14.60;99.50;;;;;;5136302;27;20034;-67
2022/11/10 00:24:21;;;;;;;61.22;49.63;;;14.50;99.50;;;;;;5115494;28;20103;-69
2022/11/10 00:26:47;;;;;;;61.58;50.03;;;14.60;99.70;;;;;;5115324;28;20106;-70
2022/11/10 00:29:13;;;;;;;59.33;47.40;;;14.50;99.70;;;;;;5115427;28;20055;-69
2022/11/10 00:31:39;;;;;;;61.50;48.42;;;14.50;99.70;;;;;;5123057;27;20043;-69
2022/11/10 00:34:06;;;;;;;64.47;50.00;;;14.60;99.80;;;;;;5135525;27;20027;-69
2022/11/10 00:36:34;;;;;;;62.05;48.28;;;14.60;99.80;;;;;;5119990;27;20461;-69
2022/11/10 00:38:59;;;;;;;62.45;47.60;;;14.50;99.70;;;;;;5131827;27;20039;-68
2022/11/10 00:41:25;;;;;;;60.15;48.22;;;14.50;99.70;;;;;;5115282;28;20386;-68
2022/11/10 00:43:50;;;;;;;58.20;45.65;;;14.60;99.70;;;;;;5114910;28;20119;-70
2022/11/10 00:46:16;;;;;;;60.45;47.60;;;14.60;99.90;;;;;;5115159;28;20043;-67
2022/11/10 00:48:42;;;;;;;65.35;47.75;;;14.60;99.70;;;;;;5115400;28;20040;-69
2022/11/10 00:51:20;;;;;;;64.00;49.63;;;14.50;99.70;;;;;;5127721;27;20490;-68
2022/11/10 00:53:45;;;;;;;61.72;47.83;;;14.60;99.70;;;;;;5135645;27;20027;-69
2022/11/10 00:56:11;;;;;;;65.90;48.65;;;14.60;99.90;;;;;;5135390;27;20027;-68
2022/11/10 00:58:37;;;;;;;62.50;46.95;;;14.60;99.90;;;;;;5124203;27;20071;-68
2022/11/10 01:01:04;;;;;;;56.38;45.17;;;14.50;99.80;;;;;;5129497;27;20031;-70
2022/11/10 01:03:29;;;;;;;60.10;47.78;;;14.60;99.80;;;;;;5117745;27;20047;-68
2022/11/10 01:55:34;;;;;;;65.70;49.20;;;14.50;99.90;;;;;;5132162;27;20042;-67
2022/11/10 01:58:00;;;;;;;65.63;48.85;;;14.50;99.90;;;;;;5132912;27;20031;-70
2022/11/10 02:00:26;;;;;;;62.35;48.90;;;14.60;99.90;;;;;;5131454;27;20035;-66
2022/11/10 02:02:59;;;;;;;68.10;52.15;;;14.50;99.90;;;;;;5131362;27;20800;-69
2022/11/10 02:05:25;;;;;;;;;;;14.50;99.90;;;;;;5117839;27;20074;-69
2022/11/10 02:07:51;;;;;;;60.35;47.85;;;14.50;99.90;;;;;;5113252;28;19945;-67
2022/11/10 02:10:19;;;;;;;64.65;49.20;;;14.50;99.90;;;;;;5113669;28;20059;-69
2022/11/10 02:12:47;;;;;;;64.82;48.92;;;14.60;99.90;;;;;;5113003;28;20043;-67
2022/11/10 02:15:16;;;;;;;65.90;50.65;;;14.60;99.90;;;;;;5113426;28;20468;-68
2022/11/10 02:17:42;;;;;;;65.25;47.15;;;14.50;99.90;;;;;;5113360;28;20391;-68
2022/11/10 02:20:11;;;;;;;64.55;47.75;;;14.50;99.90;;;;;;5113028;28;20028;-66
2022/11/10 02:22:37;;;;;;;61.95;46.45;;;14.50;99.90;;;;;;5095561;28;20040;-68
2022/11/10 02:25:04;;;;;;;63.88;47.70;;;14.60;99.90;;;;;;5092849;28;20028;-67
2022/11/10 02:27:30;;;;;;;68.13;49.63;;;14.60;99.90;;;;;;5092923;28;20036;-69
2022/11/10 02:29:56;;;;;;;69.10;50.00;;;14.50;99.90;;;;;;5092126;28;20038;-68
2022/11/10 02:32:22;;;;;;;67.45;47.10;;;14.50;99.90;;;;;;5099296;28;20040;-67
2022/11/10 02:34:48;;;;;;;70.95;49.35;;;14.50;99.90;;;;;;5113312;28;20123;-68
2022/11/10 02:37:14;;;;;;;67.18;47.58;;;14.50;99.90;;;;;;5112949;28;20044;-67
2022/11/10 02:39:40;;;;;;;59.92;45.38;;;14.60;99.90;;;;;;5113272;28;20040;-67
2022/11/10 02:42:09;;;;;;;57.50;43.83;;;14.60;99.90;;;;;;5113049;28;20036;-69
2022/11/10 02:44:40;;;;;;;61.28;44.30;;;14.50;99.90;;;;;;5113046;28;20031;-67
2022/11/10 02:47:06;;;;;;;56.45;44.42;;;14.60;99.90;;;;;;5113489;28;20028;-66
2022/11/10 02:49:32;;;;;;;58.60;47.20;;;14.60;99.90;;;;;;5113011;28;20074;-68
2022/11/10 02:51:58;;;;;;;54.22;43.05;;;14.60;99.90;;;;;;5104265;28;20056;-68
2022/11/10 02:54:24;;;;;;;53.20;41.90;;;14.50;99.90;;;;;;5101383;28;20093;-66
2022/11/10 02:56:49;;;;;;;59.10;45.22;;;14.50;99.90;;;;;;5129735;28;20036;-70
2022/11/10 02:59:15;;;;;;;57.17;43.80;;;14.60;99.90;;;;;;5118343;28;20110;-67
2022/11/10 03:01:41;;;;;;;56.65;43.90;;;14.60;99.90;;;;;;5124201;28;20106;-67
2022/11/10 03:04:07;;;;;;;53.88;41.67;;;14.60;99.90;;;;;;5125544;28;20043;-66
2022/11/10 03:06:33;;;;;;;52.40;41.47;;;14.60;99.90;;;;;;5115245;28;20043;-67
2022/11/10 03:08:58;;;;;;;54.05;41.40;;;14.60;99.90;;;;;;5132781;28;20050;-69
2022/11/10 03:11:25;;;;;;;55.13;42.55;;;14.60;99.90;;;;;;5113124;28;20114;-66
2022/11/10 03:13:50;;;;;;;49.97;40.50;;;14.60;99.90;;;;;;5112903;28;20039;-67
2022/11/10 03:16:16;;;;;;;49.40;40.20;;;14.60;99.90;;;;;;5112919;28;20027;-66
2022/11/10 03:18:42;;;;;;;53.60;42.90;;;14.60;99.90;;;;;;5112781;28;20119;-66
2022/11/10 03:21:08;;;;;;;56.55;44.10;;;14.60;99.90;;;;;;5124795;28;20024;-67
2022/11/10 03:23:34;;;;;;;63.67;46.70;;;14.60;99.90;;;;;;5133101;28;20387;-67
2022/11/10 03:26:03;;;;;;;59.00;44.70;;;14.60;99.90;;;;;;5133113;28;20038;-69
2022/11/10 03:28:28;;;;;;;59.65;44.90;;;14.50;99.90;;;;;;5133331;28;20036;-67
2022/11/10 03:30:54;;;;;;;64.47;47.30;;;14.60;99.90;;;;;;5133259;28;20060;-71
2022/11/10 03:33:20;;;;;;;65.97;49.13;;;14.60;99.90;;;;;;5133276;28;20038;-68
2022/11/10 03:35:45;;;;;;;69.85;50.15;;;14.60;99.90;;;;;;5133257;28;20028;-69
2022/11/10 03:38:11;;;;;;;73.45;51.15;;;14.60;99.90;;;;;;5133410;28;20027;-67
2022/11/10 03:40:37;;;;;;;66.57;48.60;;;14.50;99.90;;;;;;5133308;28;20034;-67
2022/11/10 03:43:03;;;;;;;68.50;48.00;;;14.50;99.90;;;;;;5133807;27;20039;-68
2022/11/10 03:45:29;;;;;;;70.55;50.58;;;14.50;99.90;;;;;;5128217;27;20050;-69
2022/11/10 03:47:54;;;;;;;60.17;45.05;;;14.50;99.90;;;;;;5117655;27;20066;-68
2022/11/10 03:50:20;;;;;;;65.00;47.42;;;14.50;99.90;;;;;;5136672;27;20050;-69
2022/11/10 03:52:46;;;;;;;64.72;47.70;;;14.50;99.90;;;;;;5136737;27;20042;-67
2022/11/10 03:55:16;;;;;;;62.88;47.05;;;14.50;99.90;;;;;;5136525;27;20050;-68
2022/11/10 03:57:42;;;;;;;68.78;48.67;;;14.50;99.90;;;;;;5136669;27;20114;-68
2022/11/10 04:00:10;;;;;;;69.95;48.97;;;14.50;99.90;;;;;;5136783;27;20059;-69
2022/11/10 04:02:37;;;;;;;60.45;45.42;;;14.50;99.90;;;;;;5134627;27;20376;-68
2022/11/10 04:10:38;;;;;;;66.70;49.55;;;14.50;99.90;;;;;;5136408;27;20119;-68
2022/11/10 04:15:48;;;;;;;69.57;50.00;;;14.50;99.90;;;;;;5136322;27;20039;-68
2022/11/10 04:18:20;;;;;;;69.60;50.17;;;14.50;99.90;;;;;;5136200;27;20039;-67
2022/11/10 04:20:47;;;;;;;66.50;48.20;;;14.50;99.90;;;;;;5136055;27;20032;-67
2022/11/10 04:23:25;;;;;;;62.92;46.58;;;14.50;99.90;;;;;;5136076;27;20054;-67
2022/11/10 04:28:40;;;;;;;62.00;44.08;;;14.50;99.90;;;;;;5129997;27;20042;-66
2022/11/10 04:31:06;;;;;;;65.50;47.22;;;14.50;99.90;;;;;;5115219;28;20060;-67
2022/11/10 04:33:32;;;;;;;65.30;46.28;;;14.50;99.90;;;;;;5115296;28;20127;-66
2022/11/10 04:35:58;;;;;;;62.78;45.03;;;14.50;99.90;;;;;;5114911;28;20065;-69
2022/11/10 04:38:24;;;;;;;58.25;44.03;;;14.50;99.90;;;;;;5115022;28;20038;-67
2022/11/10 04:40:50;;;;;;;60.97;43.92;;;14.50;99.90;;;;;;5114962;28;20036;-67
2022/11/10 04:43:16;;;;;;;58.88;43.53;;;14.50;99.90;;;;;;5115158;28;20028;-67
2022/11/10 04:45:42;;;;;;;58.38;42.03;;;14.50;99.90;;;;;;5114919;28;20088;-68
2022/11/10 04:48:08;;;;;;;50.65;39.95;;;14.50;99.90;;;;;;5129562;27;20448;-67
2022/11/10 04:50:34;;;;;;;53.13;38.45;;;14.50;99.90;;;;;;5122215;27;20038;-66
2022/11/10 04:53:00;;;;;;;53.85;39.50;;;14.50;99.90;;;;;;5115103;28;20031;-67
2022/11/10 04:55:25;;;;;;;48.70;37.17;;;14.50;99.90;;;;;;5133913;27;20047;-67
2022/11/10 04:57:51;;;;;;;49.88;36.28;;;14.50;99.90;;;;;;5134901;27;20019;-67
2022/11/10 05:00:17;;;;;;;46.42;35.58;;;14.50;99.90;;;;;;5135328;27;20062;-67
2022/11/10 05:02:43;;;;;;;49.13;34.03;;;14.40;99.90;;;;;;5134907;27;20024;-68
2022/11/10 05:05:08;;;;;;;45.20;33.58;;;14.50;99.90;;;;;;5135526;27;20031;-68
2022/11/10 05:07:34;;;;;;;45.58;34.70;;;14.50;99.90;;;;;;5134793;27;20062;-68
2022/11/10 05:10:00;;;;;;;46.55;34.50;;;14.50;99.90;;;;;;5134589;27;20471;-68
2022/11/10 05:12:25;;;;;;;42.30;34.40;;;14.50;99.90;;;;;;5135129;27;20460;-67
2022/11/10 05:14:51;;;;;;;46.47;34.63;;;14.50;99.90;;;;;;5134839;27;20035;-66
2022/11/10 05:17:17;;;;;;;45.17;34.13;;;14.50;99.90;;;;;;5134644;27;20035;-69
2022/11/10 05:19:42;;;;;;;41.17;31.88;;;14.50;99.90;;;;;;5135010;27;20035;-66
2022/11/10 05:22:08;;;;;;;44.63;31.77;;;14.50;99.90;;;;;;5135046;27;20036;-67
2022/11/10 05:24:34;;;;;;;38.47;31.13;;;14.50;99.90;;;;;;5135200;27;20042;-66
2022/11/10 05:26:59;;;;;;;38.65;30.25;;;14.50;99.90;;;;;;5134685;27;20035;-66
2022/11/10 05:29:25;;;;;;;39.70;30.30;;;14.50;99.90;;;;;;5134533;27;20043;-66
2022/11/10 05:31:51;;;;;;;42.13;30.30;;;14.50;99.90;;;;;;5134720;27;20035;-66
2022/11/10 05:34:16;;;;;;;36.70;28.58;;;14.50;99.90;;;;;;5135011;27;20358;-66
2022/11/10 05:36:42;;;;;;;34.28;26.95;;;14.50;99.90;;;;;;5134359;27;20038;-66
2022/11/10 05:39:08;;;;;;;35.13;26.98;;;14.60;99.90;;;;;;5133760;27;20042;-68
2022/11/10 05:41:33;;;;;;;33.45;26.40;;;14.60;99.90;;;;;;5134269;27;20027;-67
2022/11/10 05:43:59;;;;;;;35.78;26.65;;;14.60;99.90;;;;;;5133845;27;20110;-67
2022/11/10 05:46:25;;;;;;;33.50;25.98;;;14.50;99.90;;;;;;5134289;27;20027;-67
2022/11/10 05:48:50;;;;;;;36.17;25.60;;;14.60;99.90;;;;;;5133160;27;20043;-66
2022/11/10 05:51:16;;;;;;;30.13;24.42;;;14.60;99.90;;;;;;5134443;27;20080;-66
2022/11/10 05:53:42;;;;;;;29.63;23.55;;;14.60;99.90;;;;;;5134058;27;20067;-67
2022/11/10 05:56:07;;;;;;;30.25;22.63;;;14.60;99.90;;;;;;5134075;27;20030;-68
2022/11/10 05:58:33;;;;;;;35.58;22.90;;;14.60;99.90;;;;;;5133868;27;20092;-66
2022/11/10 06:00:59;;;;;;;28.63;22.02;;;14.60;99.90;;;;;;5133054;27;20467;-66
2022/11/10 06:03:25;;;;;;;27.27;20.65;;;14.60;99.90;;;;;;5133754;27;20418;-67
2022/11/10 06:05:50;;;;;;;25.23;19.55;;;14.60;99.90;;;;;;5133241;27;20028;-66
2022/11/10 06:08:16;;;;;;;26.42;20.23;;;14.60;99.90;;;;;;5133741;27;20063;-67
2022/11/10 06:10:42;;;;;;;26.17;21.50;;;14.60;99.90;;;;;;5134278;27;20027;-69
2022/11/10 06:13:08;;;;;;;25.20;19.80;;;14.60;99.90;;;;;;5115620;27;20037;-69
2022/11/10 06:15:34;;;;;;;27.55;19.60;;;14.60;99.90;;;;;;5134138;27;20105;-66
2022/11/10 06:17:59;;;;;;;28.02;19.83;;;14.60;99.90;;;;;;5133858;27;20033;-68
2022/11/10 06:20:26;;;;;;;23.98;18.63;;;14.60;99.90;;;;;;5134095;27;20035;-67
2022/11/10 06:23:03;;;;;;;24.67;18.23;;;14.60;99.90;;;;;;5133773;27;20076;-67
2022/11/10 06:25:30;;;;;;;22.70;18.70;;;14.60;99.90;;;;;;5133428;27;20031;-67
2022/11/10 06:27:56;;;;;;;23.00;18.58;;;14.60;99.90;;;;;;5133516;27;20084;-67
2022/11/10 06:30:23;;;;;;;21.63;17.88;;;14.60;99.90;;;;;;5133161;28;20039;-67
2022/11/10 06:32:49;;;;;;;23.95;18.80;;;14.60;99.90;;;;;;5133498;28;20043;-67
2022/11/10 06:35:15;;;;;;;21.10;17.15;;;14.60;99.90;;;;;;5133849;28;20034;-67
2022/11/10 06:37:41;;;;;;;21.13;17.55;;;14.70;99.90;;;;;;5131761;28;20035;-68
2022/11/10 06:40:09;;;;;;;23.40;17.85;;;14.60;99.90;;;;;;5117978;28;20042;-70
2022/11/10 06:42:35;;;;;;;22.95;16.73;;;14.60;99.90;;;;;;5112506;28;20118;-70
2022/11/10 06:45:01;;;;;;;19.10;15.32;;;14.60;99.90;;;;;;5112217;28;20077;-68
2022/11/10 06:47:28;;;;;;;21.40;15.18;;;14.60;99.90;;;;;;5112299;28;20036;-68
2022/11/10 06:49:54;;;;;;;19.02;15.02;;;14.60;99.90;;;;;;5111897;28;20040;-71
2022/11/10 06:52:20;;;;;;;17.17;14.27;;;14.70;99.90;;;;;;5112026;28;20042;-69
2022/11/10 06:54:45;;;;;;;19.63;14.15;;;14.60;99.90;;;;;;5124057;28;20080;-70
2022/11/10 06:57:11;;;;;;;18.33;13.63;;;14.60;99.90;;;;;;5132682;28;20053;-70
2022/11/10 06:59:37;;;;;;;16.83;13.05;;;14.60;99.90;;;;;;5132541;28;20044;-70
2022/11/10 07:02:02;;;;;;;16.50;13.20;;;14.60;99.90;;;;;;5132931;28;20646;-70
2022/11/10 07:04:28;;;;;;;15.32;12.75;;;14.60;99.90;;;;;;5132665;28;20039;-70
2022/11/10 07:06:54;;;;;;;16.67;12.48;;;14.70;99.90;;;;;;5132666;28;20080;-69
2022/11/10 07:09:20;;;;;;;16.63;11.57;;;14.70;99.90;;;;;;5132476;28;20118;-69
2022/11/10 07:11:45;;;;;;;14.68;11.90;;;14.60;99.90;;;;;;5132863;28;20081;-70
2022/11/10 07:14:11;;;;;;;17.77;12.98;;;14.70;99.90;;;;;;5132545;28;20482;-69
2022/11/10 07:16:37;;;;;;;15.82;11.18;;;14.60;99.90;;;;;;5132707;27;20055;-70
2022/11/10 07:19:03;;;;;;;15.90;11.77;;;14.70;99.90;;;;;;5136402;27;20042;-71
2022/11/10 07:21:28;;;;;;;12.73;10.70;;;14.70;99.90;;;;;;5076899;27;20042;-69
2022/11/10 07:23:54;;;;;;;14.85;11.13;;;14.60;99.90;;;;;;5095618;28;20040;-70
2022/11/10 07:26:20;;;;;;;17.38;12.85;;;14.70;99.90;;;;;;5095385;28;20415;-68
2022/11/10 07:28:46;;;;;;;15.60;13.30;;;14.70;99.90;;;;;;5095514;28;20044;-67
2022/11/10 07:31:11;;;;;;;15.90;13.13;;;14.70;99.90;;;;;;5096011;28;20032;-67
2022/11/10 07:33:37;;;;;;;18.20;11.05;;;14.70;99.90;;;;;;5095366;28;20491;-69
2022/11/10 07:36:03;;;;;;;20.13;12.32;;;14.70;99.90;;;;;;5095300;28;20033;-67
2022/11/10 07:38:29;;;;;;;18.15;12.15;;;14.70;99.90;;;;;;5095704;28;20028;-67
2022/11/10 07:40:55;;;;;;;16.67;11.90;;;14.70;99.90;;;;;;5095642;28;20063;-70
2022/11/10 07:43:24;;;;;;;14.38;11.18;;;14.70;99.90;;;;;;5095486;28;20040;-69
2022/11/10 07:45:50;;;;;;;14.38;10.90;;;14.70;99.90;;;;;;5095192;28;20036;-69
2022/11/10 07:48:16;;;;;;;15.02;11.25;;;14.70;99.90;;;;;;5095567;28;20411;-69
2022/11/10 07:50:42;;;;;;;13.85;10.02;;;14.70;99.90;;;;;;5095416;28;20028;-68
2022/11/10 07:53:16;;;;;;;14.70;11.18;;;14.70;99.90;;;;;;5095748;28;20430;-68
2022/11/10 07:55:44;;;;;;;15.15;11.30;;;14.70;99.90;;;;;;5094941;28;20504;-69
2022/11/10 07:58:12;;;;;;;11.70;9.77;;;14.70;99.90;;;;;;5095498;28;20089;-68
2022/11/10 08:00:39;;;;;;;13.68;10.63;;;14.70;99.90;;;;;;5095133;28;20040;-68
2022/11/10 08:03:19;;;;;;;13.55;10.65;;;14.70;99.90;;;;;;5095308;28;20097;-68
2022/11/10 08:05:46;;;;;;;11.80;10.20;;;14.80;99.90;;;;;;5094775;28;20035;-69
2022/11/10 08:08:12;;;;;;;13.18;10.73;;;14.80;99.90;;;;;;5094795;28;20036;-68
2022/11/10 08:10:40;;;;;;;13.65;11.38;;;14.80;99.90;;;;;;5095186;28;20103;-69
2022/11/10 08:13:07;;;;;;;13.45;11.30;;;14.80;99.90;;;;;;5094947;28;20119;-68
2022/11/10 08:15:34;;;;;;;12.65;10.38;;;14.80;99.90;;;;;;5095207;28;20028;-68
2022/11/10 08:18:02;;;;;;;11.85;8.82;;;14.80;99.90;;;;;;5094904;28;20335;-68
2022/11/10 08:20:28;;;;;;;13.00;9.13;;;14.80;99.90;;;;;;5094427;28;20032;-68
2022/11/10 08:23:02;;;;;;;10.77;8.32;;;14.80;99.90;;;;;;5094646;28;20040;-68
2022/11/10 08:25:30;;;;;;;19.42;9.10;;;14.80;99.90;;;;;;5095012;28;20468;-68
2022/11/10 08:28:06;;;;;;;11.45;8.73;;;14.80;99.90;;;;;;5094538;28;20082;-68
2022/11/10 08:30:33;;;;;;;11.65;9.02;;;14.80;99.90;;;;;;5093202;28;20032;-70
2022/11/10 08:33:00;;;;;;;11.73;9.57;;;14.80;99.90;;;;;;5094115;28;20028;-67
2022/11/10 08:35:28;;;;;;;14.63;10.75;;;14.80;99.90;;;;;;5094567;28;20404;-69
2022/11/10 08:37:54;;;;;;;18.00;10.85;;;14.80;99.90;;;;;;5093695;28;20032;-67
2022/11/10 08:40:21;;;;;;;13.73;10.38;;;14.80;99.90;;;;;;5093919;28;20034;-67
2022/11/10 08:42:47;;;;;;;10.20;7.53;;;14.80;99.90;;;;;;5094030;28;20028;-68
2022/11/10 08:45:14;;;;;;;15.02;7.43;;;14.80;99.90;;;;;;5094217;28;20032;-67
2022/11/10 08:47:39;;;;;;;8.88;5.93;;;14.80;99.90;;;;;;5094700;28;20028;-67
2022/11/10 08:50:06;;;;;;;8.30;5.97;;;14.80;99.90;;;;;;5094408;28;20047;-69
2022/11/10 08:52:32;;;;;;;10.10;5.38;;;14.80;99.90;;;;;;5094300;28;20107;-67
2022/11/10 08:54:58;;;;;;;12.95;5.50;;;14.90;99.90;;;;;;5093920;28;20084;-71
2022/11/10 08:57:24;;;;;;;9.75;6.00;;;14.80;99.90;;;;;;5094283;28;20020;-68
2022/11/10 08:59:49;;;;;;;8.02;5.38;;;14.90;99.90;;;;;;5094524;28;20472;-68
2022/11/10 09:02:15;;;;;;;8.55;5.35;;;14.90;99.90;;;;;;5094650;28;20043;-70
2022/11/10 09:04:41;;;;;;;8.77;5.28;;;14.90;99.90;;;;;;5094173;28;20433;-74
2022/11/10 09:07:07;;;;;;;8.70;4.97;;;14.80;99.90;;;;;;5075816;28;20039;-72
2022/11/10 09:09:32;;;;;;;9.32;4.95;;;14.90;99.90;;;;;;5094132;28;20079;-75
2022/11/10 09:11:58;;;;;;;7.90;5.47;;;14.90;99.90;;;;;;5094528;28;20024;-73
2022/11/10 09:14:24;;;;;;;9.00;5.40;;;14.90;99.90;;;;;;5093957;28;20028;-74
2022/11/10 09:16:49;;;;;;;10.52;5.72;;;14.90;99.90;;;;;;5093816;28;20472;-75
2022/11/10 09:19:15;;;;;;;7.72;5.00;;;14.90;99.90;;;;;;5094032;28;20036;-73
2022/11/10 09:21:40;;;;;;;9.57;5.10;;;14.90;99.90;;;;;;5093767;28;20028;-72
2022/11/10 09:24:06;;;;;;;8.43;5.28;;;14.90;99.90;;;;;;5093549;28;20384;-73
2022/11/10 09:26:33;;;;;;;12.55;5.53;;;14.90;99.90;;;;;;5093683;28;20302;-73
2022/11/10 09:28:58;;;;;;;9.98;5.53;;;14.90;99.90;;;;;;5093172;28;20123;-74
2022/11/10 09:31:24;;;;;;;7.03;5.60;;;14.90;99.90;;;;;;5093790;28;20108;-75
2022/11/10 09:33:50;;;;;;;9.55;6.50;;;14.90;99.90;;;;;;5093044;28;20043;-73
2022/11/10 09:36:15;;;;;;;9.63;5.78;;;14.90;99.90;;;;;;5093775;28;20028;-73
2022/11/10 09:38:41;;;;;;;8.73;5.43;;;14.90;99.90;;;;;;5094314;28;20086;-73
2022/11/10 09:41:10;;;;;;;7.25;5.78;;;14.90;99.90;;;;;;5093751;28;20066;-74
2022/11/10 09:43:58;;;;;;;7.70;5.13;;;14.90;99.90;;;;;;5093800;28;20112;-73
2022/11/10 09:46:29;;;;;;;6.97;5.40;;;14.90;99.90;;;;;;5093759;28;20036;-72
2022/11/10 09:49:02;;;;;;;9.73;5.93;;;15.00;99.90;;;;;;5093868;28;20048;-73
2022/11/10 09:51:33;;;;;;;;;;;15.00;99.90;;;;;;5074324;28;20270;-73
2022/11/10 09:54:20;;;;;;;11.85;6.03;;;15.00;99.90;;;;;;5073250;28;19970;-74
2022/11/10 09:56:46;;;;;;;6.30;4.80;;;15.00;99.90;;;;;;5072923;28;20060;-75
2022/11/10 09:59:33;;;;;;;7.70;5.28;;;14.90;99.90;;;;;;5072639;28;20056;-73
2022/11/10 10:02:15;;;;;;;9.60;6.05;;;15.00;99.90;;;;;;5072858;28;20062;-75
2022/11/10 10:05:01;;;;;;;8.45;5.47;;;15.00;99.90;;;;;;5073224;28;20039;-72
2022/11/10 10:07:58;;;;;;;7.68;5.93;;;15.00;99.90;;;;;;5072803;28;20041;-73
2022/11/10 10:10:43;;;;;;;6.45;5.47;;;15.00;99.90;;;;;;5072869;28;20052;-73
2022/11/10 10:13:27;;;;;;;14.00;6.10;;;15.00;99.90;;;;;;5072477;28;20473;-74
2022/11/10 10:16:24;;;;;;;9.60;5.65;;;15.00;99.90;;;;;;5072755;28;20396;-74
2022/11/10 10:19:21;;;;;;;9.27;5.85;;;15.00;99.90;;;;;;5061095;28;20044;-73
2022/11/10 10:22:11;;;;;;;9.32;6.15;;;15.00;99.90;;;;;;5072391;28;20051;-74
2022/11/10 10:24:38;;;;;;;10.40;6.32;;;15.00;99.90;;;;;;5072911;28;20035;-74
2022/11/10 10:27:07;;;;;;;13.25;6.22;;;15.00;99.90;;;;;;5073122;28;20056;-72
2022/11/10 10:29:44;;;;;;;10.95;6.53;;;15.00;99.90;;;;;;5072843;28;20075;-74
2022/11/10 10:32:14;;;;;;;10.00;7.15;;;15.00;99.90;;;;;;5072298;28;20033;-72
2022/11/10 10:34:42;;;;;;;9.35;7.72;;;15.00;99.90;;;;;;5080587;28;20032;-73
2022/11/10 10:37:46;;;;;;;7.82;6.88;;;15.00;99.90;;;;;;5092409;28;20614;-74
2022/11/10 10:40:22;;;;;;;10.40;6.10;;;15.00;99.90;;;;;;5068007;28;20127;-73
2022/11/10 10:42:48;;;;;;;10.32;5.53;;;15.00;99.90;;;;;;5092490;28;20032;-73
2022/11/10 10:45:21;;;;;;;9.30;5.43;;;15.00;99.90;;;;;;5092580;28;20042;-73
2022/11/10 10:47:50;;;;;;;7.63;5.13;;;15.00;99.90;;;;;;5092442;28;20039;-74
2022/11/10 10:50:21;;;;;;;7.63;5.22;;;15.10;99.90;;;;;;5092505;28;20059;-73
2022/11/10 10:53:14;;;;;;;7.82;4.93;;;15.00;99.90;;;;;;5094489;28;20040;-73
2022/11/10 10:56:06;;;;;;;6.13;4.40;;;15.00;99.90;;;;;;5096941;28;20040;-72
2022/11/10 10:58:35;;;;;;;5.20;3.95;;;15.00;99.90;;;;;;5096638;28;20043;-73
2022/11/10 11:01:31;;;;;;;8.60;3.60;;;15.10;99.90;;;;;;5096425;28;20028;-75
2022/11/10 11:03:58;;;;;;;5.63;3.50;;;15.10;99.90;;;;;;5096891;28;20158;-74
2022/11/10 11:06:31;;;;;;;6.47;2.75;;;15.00;99.90;;;;;;5096804;28;20036;-72
2022/11/10 11:09:07;;;;;;;5.97;2.53;;;15.00;99.90;;;;;;5096075;28;20040;-73
2022/11/10 11:11:38;;;;;;;3.28;2.20;;;15.00;99.90;;;;;;5095820;28;20484;-76
2022/11/10 11:14:21;;;;;;;4.40;2.40;;;15.00;99.90;;;;;;5095647;28;20031;-76
2022/11/10 11:16:53;;;;;;;3.50;2.20;;;15.10;99.90;;;;;;5095917;28;20440;-76
2022/11/10 11:19:20;;;;;;;;;;;15.00;99.90;;;;;;5096585;28;20031;-72
2022/11/10 11:22:04;;;;;;;3.70;2.10;;;15.00;99.90;;;;;;5095696;28;19910;-73
2022/11/10 11:25:01;;;;;;;3.08;2.42;;;15.00;99.90;;;;;;5095893;28;20032;-73
2022/11/10 11:27:54;;;;;;;5.72;2.38;;;15.00;99.90;;;;;;5057363;28;20127;-72
2022/11/10 11:30:26;;;;;;;4.32;1.85;;;15.00;99.90;;;;;;5096146;28;20040;-73
2022/11/10 11:33:10;;;;;;;2.95;1.40;;;15.00;99.90;;;;;;5095821;28;20028;-72
2022/11/10 11:35:57;;;;;;;4.75;1.60;;;15.00;99.90;;;;;;5095569;28;20384;-71
2022/11/10 11:38:57;;;;;;;1.67;1.30;;;15.00;99.90;;;;;;5095568;28;20115;-76
2022/11/10 11:41:53;;;;;;;2.63;1.60;;;15.00;99.90;;;;;;5080850;28;20036;-71
2022/11/10 11:44:41;;;;;;;6.18;1.58;;;15.00;99.90;;;;;;5095666;28;20028;-71
2022/11/10 11:47:38;;;;;;;2.60;1.33;;;15.00;99.90;;;;;;5095481;28;20024;-70
2022/11/10 11:50:14;;;;;;;2.60;1.38;;;14.90;99.90;;;;;;5094850;28;20069;-74
2022/11/10 11:52:53;;;;;;;2.42;1.35;;;15.00;99.90;;;;;;5095263;28;20113;-74
2022/11/10 11:55:31;;;;;;;5.65;1.58;;;15.00;99.90;;;;;;5095135;28;20128;-72
2022/11/10 11:58:27;;;;;;;1.92;1.42;;;15.00;99.80;;;;;;5094885;28;20036;-69
2022/11/10 12:01:29;;;;;;;2.33;1.40;;;14.90;99.80;;;;;;5094366;28;20062;-71
2022/11/10 12:04:23;;;;;;;2.10;1.42;;;14.90;99.80;;;;;;5093737;28;20036;-76
2022/11/10 12:07:05;;;;;;;4.28;1.60;;;15.00;99.70;;;;;;5095341;28;20047;-70
2022/11/10 12:09:56;;;;;;;1.70;1.00;;;15.00;99.70;;;;;;5091339;28;20123;-73
2022/11/10 12:12:58;;;;;;;2.58;1.38;;;15.00;99.60;;;;;;5090780;28;20319;-71
2022/11/10 12:16:06;;;;;;;3.03;1.30;;;15.00;99.60;;;;;;5092390;28;20089;-72
2022/11/10 12:18:36;;;;;;;2.47;1.20;;;14.90;99.50;;;;;;5086002;28;20111;-76
2022/11/10 12:21:23;;;;;;;1.88;0.98;;;14.90;99.10;;;;;;5095019;28;20047;-69
2022/11/10 12:24:13;;;;;;;18.70;1.65;;;14.90;99.20;;;;;;5094992;28;20036;-70
2022/11/10 12:27:09;;;;;;;3.67;2.70;;;14.90;99.20;;;;;;5094743;28;20043;-70
2022/11/10 12:29:42;;;;;;;445.60;19.50;;;14.90;99.60;;;;;;5094337;28;20314;-74
2022/11/10 12:32:23;;;;;;;8.57;3.10;;;14.90;99.90;;;;;;5094958;28;20024;-71
2022/11/10 12:35:31;;;;;;;164.23;12.00;;;14.90;99.90;;;;;;5095212;28;20042;-70
2022/11/10 12:38:10;;;;;;;8.20;5.70;;;14.90;99.90;;;;;;5089793;28;20092;-72
2022/11/10 12:40:40;;;;;;;21.73;3.38;;;14.90;99.90;;;;;;5094882;28;20054;-71
2022/11/10 12:43:37;;;;;;;583.40;34.80;;;14.90;99.90;;;;;;5094755;28;20036;-74
2022/11/10 12:46:07;;;;;;;4.25;3.83;;;14.90;99.90;;;;;;5094406;28;20039;-70
2022/11/10 12:48:59;;;;;;;2.65;1.67;;;14.90;99.90;;;;;;5094407;28;20032;-71
2022/11/10 12:51:53;;;;;;;3.05;1.73;;;14.90;99.90;;;;;;5084322;28;20032;-70
2022/11/10 12:54:20;;;;;;;4.88;1.63;;;14.90;99.90;;;;;;5094206;28;20048;-71
2022/11/10 12:57:13;;;;;;;2.00;1.30;;;14.90;99.90;;;;;;5093398;28;20186;-70
2022/11/10 12:59:41;;;;;;;2.88;1.20;;;14.90;99.80;;;;;;5094109;28;20055;-71
2022/11/10 13:02:16;;;;;;;1.85;1.30;;;14.90;99.80;;;;;;5094117;28;20401;-70
2022/11/10 13:04:41;;;;;;;5.65;1.75;;;14.80;99.60;;;;;;5094578;28;21170;-70
2022/11/10 13:07:11;;;;;;;5.38;1.95;;;14.80;99.60;;;;;;5094238;28;20040;-71
2022/11/10 13:09:42;;;;;;;2.50;2.00;;;14.80;99.70;;;;;;5094041;28;20044;-71
2022/11/10 13:12:22;;;;;;;4.38;2.45;;;14.80;99.70;;;;;;5094421;28;20517;-71
2022/11/10 13:14:48;;;;;;;4.43;1.85;;;14.80;99.80;;;;;;5093102;28;20160;-70
2022/11/10 13:17:27;;;;;;;1.52;0.95;;;14.80;99.80;;;;;;5094150;28;20031;-70
2022/11/10 13:19:55;;;;;;;3.20;1.75;;;14.90;99.60;;;;;;5093857;28;20090;-70
2022/11/10 13:22:39;;;;;;;3.67;1.40;;;14.90;99.40;;;;;;5093785;28;20089;-73
2022/11/10 13:25:38;;;;;;;3.42;1.30;;;14.90;99.40;;;;;;5094016;28;20067;-74
2022/11/10 13:28:08;;;;;;;3.05;1.70;;;14.90;99.30;;;;;;5094522;28;20040;-72
2022/11/10 13:30:39;;;;;;;1.30;0.93;;;14.90;99.40;;;;;;5094078;28;20043;-73
2022/11/10 13:33:24;;;;;;;2.70;1.07;;;14.90;99.20;;;;;;5093993;28;20490;-72
2022/11/10 13:35:53;;;;;;;3.08;1.50;;;14.80;98.80;;;;;;5088477;28;20477;-71
2022/11/10 13:38:43;;;;;;;2.15;1.30;;;14.80;98.80;;;;;;5072929;28;20041;-73
2022/11/10 13:41:18;;;;;;;6.22;2.70;;;14.90;98.70;;;;;;5071329;28;20473;-72
2022/11/10 13:43:55;;;;;;;4.97;1.08;;;14.80;98.60;;;;;;5070584;28;20028;-71
2022/11/10 13:46:32;;;;;;;1.77;1.30;;;14.90;98.10;;;;;;5076090;28;20059;-72
2022/11/10 13:48:58;;;;;;;2.20;1.50;;;14.80;98.00;;;;;;5072912;28;20071;-70
2022/11/10 13:51:53;;;;;;;2.30;1.80;;;14.80;98.00;;;;;;5073260;28;20063;-73
2022/11/10 13:54:19;;;;;;;5.25;2.65;;;14.80;98.20;;;;;;5072969;28;20048;-79
2022/11/10 13:57:03;;;;;;;7.28;3.10;;;14.80;98.40;;;;;;5073176;28;20089;-78
2022/11/10 13:59:31;;;;;;;5.95;3.85;;;14.80;98.60;;;;;;5073372;28;20031;-79